createdAt,value
2022-10-25T00:01:23.694Z,11.18
2022-10-25T00:03:54.169Z,12.82
2022-10-25T00:06:23.157Z,15.75
2022-10-25T00:08:52.010Z,13.38
2022-10-25T00:11:22.449Z,13.07
2022-10-25T00:13:51.139Z,8.63
2022-10-25T00:16:22.697Z,9.90
2022-10-25T00:18:50.958Z,19.17
2022-10-25T00:21:21.204Z,21.92
2022-10-25T00:23:49.622Z,12.05
2022-10-25T00:26:17.877Z,14.88
2022-10-25T00:28:46.247Z,12.70
2022-10-25T00:31:16.020Z,12.13
2022-10-25T00:33:46.377Z,16.30
2022-10-25T00:36:16.349Z,10.57
2022-10-25T00:38:46.547Z,11.18
2022-10-25T00:41:16.015Z,10.68
2022-10-25T00:43:47.896Z,7.65
2022-10-25T00:46:23.439Z,9.20
2022-10-25T00:48:57.235Z,8.27
2022-10-25T00:51:34.047Z,7.22
2022-10-25T00:54:03.836Z,9.30
2022-10-25T00:56:37.145Z,13.93
2022-10-25T00:59:10.565Z,13.70
2022-10-25T01:01:39.911Z,9.68
2022-10-25T01:04:12.910Z,10.85
2022-10-25T01:06:43.258Z,13.60
2022-10-25T01:09:16.711Z,9.25
2022-10-25T01:11:45.145Z,8.30
2022-10-25T01:14:15.977Z,5.32
2022-10-25T01:16:51.617Z,16.23
2022-10-25T01:19:37.987Z,9.13
2022-10-25T01:22:09.971Z,7.15
2022-10-25T01:25:30.079Z,9.30
2022-10-25T01:28:06.319Z,12.15
2022-10-25T01:31:00.814Z,7.95
2022-10-25T01:33:35.329Z,10.45
2022-10-25T01:36:09.370Z,8.63
2022-10-25T01:38:42.840Z,14.98
2022-10-25T01:41:21.001Z,7.30
2022-10-25T01:43:56.817Z,6.68
2022-10-25T01:46:32.935Z,7.68
2022-10-25T01:49:06.246Z,9.20
2022-10-25T01:51:37.895Z,5.95
2022-10-25T01:54:20.236Z,5.38
2022-10-25T01:56:59.056Z,13.57
2022-10-25T02:00:01.052Z,10.05
2022-10-25T02:02:34.913Z,10.93
2022-10-25T02:05:10.763Z,7.50
2022-10-25T02:07:42.819Z,6.03
2022-10-25T02:10:17.616Z,6.88
2022-10-25T02:12:54.664Z,3.78
2022-10-25T02:15:26.369Z,7.18
2022-10-25T02:18:00.978Z,6.75
2022-10-25T02:20:32.663Z,6.32
2022-10-25T02:23:05.015Z,8.57
2022-10-25T02:25:34.664Z,4.72
2022-10-25T02:28:06.586Z,6.13
2022-10-25T02:30:39.407Z,5.18
2022-10-25T02:33:09.160Z,9.50
2022-10-25T02:35:37.539Z,7.35
2022-10-25T02:38:05.938Z,6.97
2022-10-25T02:40:34.643Z,4.00
2022-10-25T02:43:03.021Z,6.80
2022-10-25T02:45:31.418Z,3.50
2022-10-25T02:47:59.710Z,5.80
2022-10-25T02:50:29.394Z,5.93
2022-10-25T02:52:57.692Z,6.47
2022-10-25T02:55:25.969Z,5.68
2022-10-25T02:57:54.385Z,4.55
2022-10-25T03:00:22.746Z,6.85
2022-10-25T03:02:51.133Z,3.70
2022-10-25T03:05:19.404Z,9.77
2022-10-25T03:07:49.016Z,9.43
2022-10-25T03:10:17.432Z,3.30
2022-10-25T03:12:45.944Z,6.53
2022-10-25T03:15:14.372Z,7.95
2022-10-25T03:17:42.628Z,6.57
2022-10-25T03:20:11.432Z,4.15
2022-10-25T03:22:39.745Z,4.90
2022-10-25T03:25:10.175Z,11.82
2022-10-25T03:27:38.595Z,4.28
2022-10-25T03:30:07.883Z,5.22
2022-10-25T03:32:36.210Z,4.07
2022-10-25T03:35:04.700Z,5.00
2022-10-25T03:37:32.985Z,9.48
2022-10-25T03:40:01.528Z,6.97
2022-10-25T03:42:31.196Z,5.70
2022-10-25T03:44:59.491Z,11.48
2022-10-25T03:47:27.762Z,4.88
2022-10-25T03:49:55.984Z,7.03
2022-10-25T03:52:24.303Z,8.52
2022-10-25T03:54:52.580Z,9.30
2022-10-25T03:57:20.970Z,6.35
2022-10-25T03:59:50.620Z,5.07
2022-10-25T04:02:19.060Z,6.47
2022-10-25T04:04:47.402Z,5.22
2022-10-25T04:07:15.862Z,7.13
2022-10-25T04:09:44.117Z,3.40
2022-10-25T04:12:12.479Z,6.05
2022-10-25T04:14:40.764Z,7.55
2022-10-25T04:17:10.381Z,5.05
2022-10-25T04:19:38.707Z,8.00
2022-10-25T04:22:06.915Z,4.38
2022-10-25T04:24:35.271Z,5.75
2022-10-25T04:27:03.513Z,7.07
2022-10-25T04:29:31.813Z,5.68
2022-10-25T04:32:00.127Z,4.13
2022-10-25T04:34:29.729Z,10.30
2022-10-25T04:36:58.053Z,5.10
2022-10-25T04:39:26.415Z,8.85
2022-10-25T04:41:54.676Z,10.57
2022-10-25T04:44:22.904Z,10.13
2022-10-25T04:46:51.807Z,6.00
2022-10-25T04:49:21.341Z,12.93
2022-10-25T04:54:24.269Z,3.42
2022-10-25T04:56:52.571Z,10.75
2022-10-25T04:59:20.777Z,10.00
2022-10-25T05:01:49.169Z,5.82
2022-10-25T05:04:17.576Z,7.97
2022-10-25T05:06:45.814Z,9.18
2022-10-25T05:09:15.437Z,11.93
2022-10-25T05:11:43.705Z,9.50
2022-10-25T05:14:12.100Z,7.22
2022-10-25T05:16:40.384Z,4.97
2022-10-25T05:19:08.750Z,8.35
2022-10-25T05:21:36.977Z,14.35
2022-10-25T05:24:05.744Z,7.90
2022-10-25T05:26:36.631Z,7.95
2022-10-25T05:29:09.340Z,8.68
2022-10-25T05:31:39.169Z,9.30
2022-10-25T05:34:07.722Z,10.15
2022-10-25T05:36:36.041Z,7.30
2022-10-25T05:39:04.521Z,8.48
2022-10-25T05:41:36.099Z,6.18
2022-10-25T05:44:07.217Z,5.70
2022-10-25T05:46:35.786Z,9.43
2022-10-25T05:49:04.824Z,8.48
2022-10-25T05:51:36.178Z,6.90
2022-10-25T05:54:07.548Z,12.73
2022-10-25T05:56:37.309Z,11.43
2022-10-25T05:59:09.883Z,8.70
2022-10-25T06:01:40.461Z,6.47
2022-10-25T06:04:09.831Z,11.73
2022-10-25T06:06:38.805Z,8.48
2022-10-25T06:09:07.781Z,10.48
2022-10-25T06:11:37.927Z,9.43
2022-10-25T06:14:08.329Z,13.27
2022-10-25T06:16:39.046Z,11.80
2022-10-25T06:19:07.407Z,16.23
2022-10-25T06:21:35.686Z,12.18
2022-10-25T06:24:04.343Z,11.63
2022-10-25T06:26:32.714Z,7.97
2022-10-25T06:29:02.675Z,11.00
2022-10-25T06:31:33.070Z,10.70
2022-10-25T06:34:01.641Z,7.63
2022-10-25T06:36:31.310Z,10.23
2022-10-25T06:39:05.907Z,15.65
2022-10-25T06:41:37.047Z,11.95
2022-10-25T06:44:07.186Z,15.20
2022-10-25T06:49:27.962Z,11.13
2022-10-25T06:51:56.291Z,14.82
2022-10-25T06:54:26.826Z,13.65
2022-10-25T06:56:55.144Z,14.52
2022-10-25T06:59:23.692Z,15.85
2022-10-25T07:01:55.535Z,17.15
2022-10-25T07:04:23.930Z,15.95
2022-10-25T07:06:55.121Z,15.35
2022-10-25T07:09:23.980Z,14.25
2022-10-25T07:11:52.289Z,12.30
2022-10-25T07:14:20.504Z,13.93
2022-10-25T07:16:48.738Z,11.43
2022-10-25T07:19:18.565Z,17.17
2022-10-25T07:21:46.789Z,9.75
2022-10-25T07:24:15.130Z,17.60
2022-10-25T07:26:43.426Z,13.65
2022-10-25T07:29:11.716Z,23.15
2022-10-25T07:31:43.238Z,14.65
2022-10-25T07:34:13.477Z,15.05
2022-10-25T07:36:43.467Z,16.23
2022-10-25T07:39:11.826Z,15.68
2022-10-25T07:41:40.040Z,11.77
2022-10-25T07:44:13.024Z,10.50
2022-10-25T07:46:44.477Z,22.17
2022-10-25T07:49:12.879Z,12.30
2022-10-25T07:51:42.669Z,16.02
2022-10-25T07:54:10.955Z,16.50
2022-10-25T07:56:39.283Z,19.30
2022-10-25T07:59:07.543Z,16.77
2022-10-25T08:01:36.760Z,19.25
2022-10-25T08:04:05.413Z,14.18
2022-10-25T08:06:33.723Z,8.88
2022-10-25T08:09:14.216Z,17.42
2022-10-25T08:11:43.528Z,15.00
2022-10-25T08:14:11.939Z,10.52
2022-10-25T08:16:40.129Z,18.33
2022-10-25T08:19:08.534Z,10.30
2022-10-25T08:21:36.806Z,7.57
2022-10-25T08:24:07.392Z,11.65
2022-10-25T08:26:37.041Z,13.10
2022-10-25T08:29:05.659Z,14.63
2022-10-25T08:31:33.921Z,9.93
2022-10-25T08:34:02.289Z,8.20
2022-10-25T08:36:30.582Z,8.30
2022-10-25T08:38:58.844Z,6.88
2022-10-25T08:41:41.567Z,10.52
2022-10-25T08:44:30.847Z,7.90
2022-10-25T08:47:03.129Z,4.47
2022-10-25T08:49:41.187Z,7.57
2022-10-25T08:52:19.820Z,5.63
2022-10-25T08:54:48.481Z,8.60
2022-10-25T08:57:24.575Z,6.57
2022-10-25T08:59:55.304Z,9.73
2022-10-25T09:02:34.771Z,7.57
2022-10-25T09:05:03.236Z,5.70
2022-10-25T09:07:57.545Z,3.80
2022-10-25T09:10:41.776Z,5.50
2022-10-25T09:13:23.155Z,7.20
2022-10-25T09:16:01.401Z,6.82
2022-10-25T09:18:37.419Z,4.80
2022-10-25T09:21:14.898Z,8.48
2022-10-25T09:23:57.260Z,5.07
2022-10-25T09:26:40.019Z,5.38
2022-10-25T09:29:24.991Z,5.15
2022-10-25T09:31:57.866Z,5.03
2022-10-25T09:34:28.915Z,8.75
2022-10-25T09:37:05.297Z,7.00
2022-10-25T09:39:40.037Z,10.43
2022-10-25T09:42:19.111Z,6.68
2022-10-25T09:44:53.134Z,6.30
2022-10-25T09:47:31.266Z,7.38
2022-10-25T09:50:03.634Z,7.18
2022-10-25T09:52:40.393Z,5.90
2022-10-25T09:55:32.509Z,6.60
2022-10-25T09:58:01.993Z,6.68
2022-10-25T10:00:31.857Z,3.55
2022-10-25T10:03:01.109Z,8.27
2022-10-25T10:05:30.482Z,3.50
2022-10-25T10:07:58.782Z,11.00
2022-10-25T10:10:36.116Z,6.07
2022-10-25T10:13:11.879Z,5.00
2022-10-25T10:15:51.710Z,6.82
2022-10-25T10:18:28.926Z,7.00
2022-10-25T10:21:13.655Z,8.93
2022-10-25T10:23:52.609Z,5.78
2022-10-25T10:26:29.360Z,4.78
2022-10-25T10:29:08.871Z,5.30
2022-10-25T10:31:42.001Z,5.32
2022-10-25T10:34:25.117Z,8.40
2022-10-25T10:37:08.182Z,3.53
2022-10-25T10:39:36.460Z,3.85
2022-10-25T10:42:16.725Z,4.93
2022-10-25T10:45:02.795Z,4.75
2022-10-25T10:47:36.302Z,5.55
2022-10-25T10:50:13.228Z,7.28
2022-10-25T10:52:45.448Z,6.57
2022-10-25T10:55:21.647Z,3.15
2022-10-25T10:57:50.079Z,6.30
2022-10-25T11:00:26.268Z,4.63
2022-10-25T11:05:31.766Z,5.90
2022-10-25T11:08:01.835Z,3.40
2022-10-25T11:10:32.881Z,3.75
2022-10-25T11:13:16.688Z,3.58
2022-10-25T11:16:11.375Z,6.88
2022-10-25T11:18:51.070Z,3.80
2022-10-25T11:21:45.634Z,11.57
2022-10-25T11:24:25.909Z,5.30
2022-10-25T11:27:05.128Z,20.70
2022-10-25T11:29:50.062Z,3.28
2022-10-25T11:32:43.830Z,3.13
2022-10-25T11:35:34.553Z,5.30
2022-10-25T11:38:08.380Z,3.38
2022-10-25T11:40:41.165Z,4.05
2022-10-25T11:43:28.044Z,3.53
2022-10-25T11:46:04.844Z,8.55
2022-10-25T11:48:48.141Z,6.32
2022-10-25T11:51:25.946Z,4.13
2022-10-25T11:54:14.521Z,5.70
2022-10-25T11:56:55.928Z,8.38
2022-10-25T11:59:31.784Z,2.92
2022-10-25T12:02:15.496Z,5.50
2022-10-25T12:05:01.096Z,6.38
2022-10-25T12:07:36.955Z,3.38
2022-10-25T12:10:15.791Z,5.05
2022-10-25T12:12:49.661Z,7.20
2022-10-25T12:15:22.709Z,6.25
2022-10-25T12:17:52.468Z,6.60
2022-10-25T12:20:25.313Z,4.28
2022-10-25T12:22:58.717Z,9.23
2022-10-25T12:25:31.171Z,3.60
2022-10-25T12:28:12.215Z,3.13
2022-10-25T12:30:42.372Z,2.35
2022-10-25T12:33:21.878Z,3.22
2022-10-25T12:35:52.339Z,2.33
2022-10-25T12:38:28.762Z,4.07
2022-10-25T12:41:04.508Z,4.50
2022-10-25T12:43:37.239Z,3.20
2022-10-25T12:46:50.384Z,4.15
2022-10-25T12:49:34.944Z,2.67
2022-10-25T12:52:24.907Z,5.78
2022-10-25T12:55:26.145Z,0.63
2022-10-25T12:58:05.146Z,1.95
2022-10-25T13:00:39.586Z,4.50
2022-10-25T13:03:47.055Z,3.05
2022-10-25T13:06:38.318Z,3.28
2022-10-25T13:09:10.021Z,6.45
2022-10-25T13:11:43.449Z,4.53
2022-10-25T13:14:24.681Z,2.78
2022-10-25T13:17:42.231Z,3.05
2022-10-25T13:20:48.967Z,5.15
2022-10-25T13:24:00.603Z,3.92
2022-10-25T13:26:34.624Z,3.47
2022-10-25T13:29:25.769Z,2.75
2022-10-25T13:32:10.276Z,5.03
2022-10-25T13:34:40.804Z,2.78
2022-10-25T13:37:41.020Z,3.60
2022-10-25T13:40:26.440Z,4.53
2022-10-25T13:43:03.613Z,2.55
2022-10-25T13:45:39.659Z,1.25
2022-10-25T13:48:23.347Z,2.30
2022-10-25T13:50:55.352Z,2.83
2022-10-25T13:53:26.132Z,1.52
2022-10-25T13:56:05.206Z,3.97
2022-10-25T13:58:49.546Z,3.15
2022-10-25T14:01:57.163Z,3.40
2022-10-25T14:04:41.543Z,4.10
2022-10-25T14:07:47.036Z,1.88
2022-10-25T14:10:34.102Z,2.17
2022-10-25T14:13:23.232Z,7.75
2022-10-25T14:15:58.480Z,6.45
2022-10-25T14:18:28.014Z,3.72
2022-10-25T14:21:01.860Z,3.05
2022-10-25T14:23:34.726Z,3.05
2022-10-25T14:26:06.227Z,2.78
2022-10-25T14:28:35.844Z,3.85
2022-10-25T14:31:05.961Z,5.70
2022-10-25T14:33:39.365Z,3.58
2022-10-25T14:36:28.300Z,3.70
2022-10-25T14:38:58.357Z,3.85
2022-10-25T14:41:28.403Z,4.38
2022-10-25T14:43:57.291Z,1.67
2022-10-25T14:46:27.182Z,1.73
2022-10-25T14:48:58.546Z,1.65
2022-10-25T14:51:32.007Z,4.43
2022-10-25T14:54:03.503Z,2.13
2022-10-25T14:56:35.597Z,2.65
2022-10-25T14:59:08.777Z,0.68
2022-10-25T15:01:54.054Z,4.63
2022-10-25T15:04:28.617Z,5.45
2022-10-25T15:06:58.855Z,4.20
2022-10-25T15:09:42.271Z,5.85
2022-10-25T15:12:19.557Z,3.60
2022-10-25T15:14:48.414Z,1.33
2022-10-25T15:17:20.663Z,1.83
2022-10-25T15:20:02.904Z,4.43
2022-10-25T15:22:34.743Z,3.25
2022-10-25T15:25:02.972Z,6.35
2022-10-25T15:27:35.784Z,4.07
2022-10-25T15:30:04.998Z,1.20
2022-10-25T15:32:34.311Z,3.28
2022-10-25T15:35:03.584Z,1.95
2022-10-25T15:37:33.239Z,3.03
2022-10-25T15:40:01.532Z,3.67
2022-10-25T15:42:29.830Z,6.50
2022-10-25T15:44:58.459Z,3.05
2022-10-25T15:47:32.821Z,1.05
2022-10-25T15:50:03.410Z,3.38
2022-10-25T15:52:33.032Z,2.40
2022-10-25T15:55:01.367Z,4.03
2022-10-25T15:57:29.749Z,1.38
2022-10-25T15:59:58.171Z,6.95
2022-10-25T16:02:28.683Z,2.95
2022-10-25T16:04:57.020Z,1.45
2022-10-25T16:07:25.416Z,4.47
2022-10-25T16:09:55.158Z,2.30
2022-10-25T16:12:31.178Z,1.15
2022-10-25T16:14:59.542Z,3.80
2022-10-25T16:17:28.262Z,5.32
2022-10-25T16:19:56.788Z,10.52
2022-10-25T16:22:25.209Z,2.25
2022-10-25T16:24:54.897Z,7.22
2022-10-25T16:27:23.249Z,3.53
2022-10-25T16:29:51.560Z,5.53
2022-10-25T16:32:20.353Z,4.18
2022-10-25T16:34:48.629Z,2.85
2022-10-25T16:37:16.900Z,5.78
2022-10-25T16:39:45.166Z,4.30
2022-10-25T16:42:30.723Z,7.32
2022-10-25T16:44:59.756Z,2.42
2022-10-25T16:47:28.812Z,2.70
2022-10-25T16:49:57.314Z,6.65
2022-10-25T16:52:25.656Z,6.32
2022-10-25T16:54:54.024Z,4.85
2022-10-25T16:57:25.034Z,7.18
2022-10-25T16:59:54.678Z,4.95
2022-10-25T17:02:26.137Z,4.05
2022-10-25T17:04:54.714Z,6.80
2022-10-25T17:07:23.049Z,2.80
2022-10-25T17:09:51.347Z,6.22
2022-10-25T17:12:19.804Z,5.70
2022-10-25T17:14:48.263Z,7.22
2022-10-25T17:17:17.927Z,5.13
2022-10-25T17:19:46.239Z,7.78
2022-10-25T17:22:17.024Z,7.47
2022-10-25T17:24:45.362Z,4.25
2022-10-25T17:27:13.676Z,5.30
2022-10-25T17:29:42.035Z,3.10
2022-10-25T17:32:10.375Z,3.60
2022-10-25T17:34:40.131Z,2.80
2022-10-25T17:37:08.361Z,6.30
2022-10-25T17:39:36.729Z,8.82
2022-10-25T17:42:05.334Z,5.65
2022-10-25T17:44:33.653Z,7.97
2022-10-25T17:47:03.224Z,7.88
2022-10-25T17:49:31.721Z,12.68
2022-10-25T17:52:01.546Z,9.82
2022-10-25T17:54:29.804Z,8.57
2022-10-25T17:57:01.274Z,8.55
2022-10-25T17:59:30.343Z,6.50
2022-10-25T18:01:58.938Z,5.30
2022-10-25T18:04:27.479Z,9.93
2022-10-25T18:06:55.945Z,8.13
2022-10-25T18:09:25.621Z,10.77
2022-10-25T18:11:53.867Z,10.77
2022-10-25T18:14:22.242Z,5.18
2022-10-25T18:16:51.472Z,5.82
2022-10-25T18:19:19.772Z,10.48
2022-10-25T18:21:48.025Z,13.23
2022-10-25T18:24:16.606Z,5.13
2022-10-25T18:26:46.222Z,12.25
2022-10-25T18:29:14.472Z,10.85
2022-10-25T18:31:42.850Z,7.68
2022-10-25T18:34:11.236Z,12.00
2022-10-25T18:36:39.513Z,15.52
2022-10-25T18:39:07.960Z,22.92
2022-10-25T18:41:36.480Z,15.35
2022-10-25T18:44:08.453Z,20.55
2022-10-25T18:46:38.691Z,20.83
2022-10-25T18:49:07.174Z,20.40
2022-10-25T18:51:35.455Z,19.88
2022-10-25T18:54:04.388Z,29.48
2022-10-25T18:56:32.831Z,21.70
2022-10-25T18:59:01.336Z,20.02
2022-10-25T19:01:33.405Z,19.65
2022-10-25T19:04:04.420Z,13.38
2022-10-25T19:06:33.813Z,19.70
2022-10-25T19:09:04.692Z,14.95
2022-10-25T19:11:34.798Z,8.50
2022-10-25T19:14:05.159Z,11.45
2022-10-25T19:16:36.012Z,10.68
2022-10-25T19:19:07.061Z,11.65
2022-10-25T19:21:35.553Z,10.85
2022-10-25T19:24:04.196Z,7.15
2022-10-25T19:26:32.547Z,10.32
2022-10-25T19:29:02.414Z,8.20
2022-10-25T19:31:30.977Z,12.48
2022-10-25T19:34:03.065Z,7.97
2022-10-25T19:36:32.142Z,13.32
2022-10-25T19:39:01.852Z,10.30
2022-10-25T19:41:30.506Z,7.60
2022-10-25T19:43:59.453Z,8.48
2022-10-25T19:46:27.750Z,9.98
2022-10-25T19:49:00.259Z,11.95
2022-10-25T19:51:30.138Z,10.05
2022-10-25T19:53:58.399Z,9.13
2022-10-25T19:56:26.653Z,10.23
2022-10-25T19:58:54.935Z,12.02
2022-10-25T20:01:27.273Z,8.80
2022-10-25T20:03:57.747Z,14.43
2022-10-25T20:06:28.463Z,11.10
2022-10-25T20:08:59.268Z,11.80
2022-10-25T20:11:29.093Z,10.02
2022-10-25T20:13:59.677Z,12.43
2022-10-25T20:16:29.335Z,12.95
2022-10-25T20:18:59.556Z,11.88
2022-10-25T20:21:31.540Z,6.13
2022-10-25T20:24:03.765Z,8.45
2022-10-25T20:26:34.131Z,8.95
2022-10-25T20:29:05.740Z,9.38
2022-10-25T20:31:35.500Z,4.68
2022-10-25T20:34:03.785Z,10.48
2022-10-25T20:36:32.494Z,8.48
2022-10-25T20:39:02.103Z,8.30
2022-10-25T20:41:31.595Z,7.97
2022-10-25T20:44:02.976Z,8.32
2022-10-25T20:46:31.671Z,10.00
2022-10-25T20:49:00.837Z,9.98
2022-10-25T20:51:29.506Z,6.53
2022-10-25T20:53:57.989Z,9.48
2022-10-25T20:56:27.749Z,9.57
2022-10-25T20:58:56.058Z,11.35
2022-10-25T21:01:24.521Z,15.40
2022-10-25T21:03:54.290Z,11.90
2022-10-25T21:06:22.564Z,13.45
2022-10-25T21:08:50.834Z,12.98
2022-10-25T21:11:21.466Z,8.48
2022-10-25T21:13:51.116Z,10.05
2022-10-25T21:16:19.383Z,7.70
2022-10-25T21:18:47.784Z,6.47
2022-10-25T21:21:19.022Z,7.82
2022-10-25T21:23:47.794Z,14.45
2022-10-25T21:26:25.333Z,7.70
2022-10-25T21:28:54.940Z,7.75
2022-10-25T21:31:23.256Z,8.48
2022-10-25T21:33:52.500Z,3.78
2022-10-25T21:36:23.157Z,9.30
2022-10-25T21:38:51.544Z,10.57
2022-10-25T21:41:26.518Z,10.35
2022-10-25T21:43:57.276Z,10.85
2022-10-25T21:46:27.493Z,5.55
2022-10-25T21:48:55.992Z,5.97
2022-10-25T21:51:25.387Z,9.80
2022-10-25T21:53:54.508Z,8.68
2022-10-25T21:56:30.569Z,10.38
2022-10-25T21:59:01.830Z,10.07
2022-10-25T22:01:31.557Z,13.90
2022-10-25T22:04:00.101Z,6.22
2022-10-25T22:06:28.997Z,12.32
2022-10-25T22:08:57.746Z,11.50
2022-10-25T22:11:28.379Z,9.15
2022-10-25T22:13:57.724Z,9.85
2022-10-25T22:16:28.047Z,11.10
2022-10-25T22:18:59.015Z,8.70
2022-10-25T22:21:32.144Z,8.98
2022-10-25T22:24:00.641Z,6.22
2022-10-25T22:26:29.630Z,12.75
2022-10-25T22:28:59.519Z,9.07
2022-10-25T22:31:30.625Z,7.75
2022-10-25T22:34:00.429Z,10.70
2022-10-25T22:36:30.714Z,5.95
2022-10-25T22:38:59.463Z,9.93
2022-10-25T22:41:29.665Z,10.00
2022-10-25T22:43:58.707Z,6.03
2022-10-25T22:46:32.015Z,9.20
2022-10-25T22:49:07.132Z,8.43
2022-10-25T22:51:35.796Z,12.77
2022-10-25T22:54:04.100Z,5.65
2022-10-25T22:56:33.258Z,7.13
2022-10-25T22:59:03.136Z,8.05
2022-10-25T23:01:33.753Z,5.40
2022-10-25T23:04:04.265Z,12.07
2022-10-25T23:06:34.599Z,10.88
2022-10-25T23:09:05.529Z,10.85
2022-10-25T23:11:35.376Z,7.10
2022-10-25T23:14:05.299Z,5.05
2022-10-25T23:16:35.178Z,7.50
2022-10-25T23:19:03.759Z,7.57
2022-10-25T23:21:32.127Z,8.45
2022-10-25T23:24:01.213Z,10.90
2022-10-25T23:26:32.362Z,9.80
2022-10-25T23:29:01.787Z,8.07
2022-10-25T23:31:31.292Z,7.00
2022-10-25T23:34:02.104Z,9.75
2022-10-25T23:36:37.554Z,10.68
2022-10-25T23:39:07.825Z,8.32
2022-10-25T23:41:39.256Z,6.63
2022-10-25T23:44:07.690Z,5.38
2022-10-25T23:46:35.948Z,5.63
2022-10-25T23:49:05.654Z,10.20
2022-10-25T23:51:33.958Z,6.03
2022-10-25T23:54:02.144Z,9.07
2022-10-25T23:56:30.589Z,6.20
2022-10-25T23:58:58.833Z,9.25
